createdAt,value
2018-07-11T00:01:22.294Z,48.40
2018-07-11T00:03:52.823Z,48.80
2018-07-11T00:06:22.324Z,48.50
2018-07-11T00:08:50.657Z,48.50
2018-07-11T00:11:19.818Z,48.70
2018-07-11T00:13:50.621Z,48.40
2018-07-11T00:18:47.241Z,49.00
2018-07-11T00:21:15.693Z,48.70
2018-07-11T00:23:44.743Z,49.30
2018-07-11T00:26:13.839Z,48.80
2018-07-11T00:28:42.572Z,49.30
2018-07-11T00:31:10.951Z,49.60
2018-07-11T00:33:39.244Z,49.30
2018-07-11T00:36:09.656Z,49.80
2018-07-11T00:38:38.597Z,49.90
2018-07-11T00:41:07.686Z,50.20
2018-07-11T00:43:36.042Z,49.80
2018-07-11T00:46:05.286Z,50.30
2018-07-11T00:48:34.369Z,50.40
2018-07-11T00:51:03.364Z,50.40
2018-07-11T00:53:34.388Z,50.40
2018-07-11T00:56:03.196Z,50.60
2018-07-11T01:01:11.028Z,51.20
2018-07-11T01:03:49.829Z,51.10
2018-07-11T01:06:18.740Z,50.60
2018-07-11T01:08:50.607Z,51.20
2018-07-11T01:13:51.538Z,50.40
2018-07-11T01:16:22.172Z,50.90
2018-07-11T01:19:00.946Z,51.70
2018-07-11T01:21:30.273Z,51.30
2018-07-11T01:23:58.659Z,51.60
2018-07-11T01:26:32.128Z,51.40
2018-07-11T01:29:01.174Z,52.00
2018-07-11T01:31:29.726Z,51.80
2018-07-11T01:33:59.501Z,52.30
2018-07-11T01:36:28.503Z,52.70
2018-07-11T01:38:57.657Z,52.70
2018-07-11T01:41:25.943Z,52.60
2018-07-11T01:43:55.729Z,52.60
2018-07-11T01:46:25.251Z,52.00
2018-07-11T01:48:53.774Z,52.10
2018-07-11T01:54:02.057Z,52.60
2018-07-11T01:56:30.497Z,51.80
2018-07-11T01:58:58.915Z,52.40
2018-07-11T02:01:28.844Z,52.40
2018-07-11T02:03:57.308Z,52.60
2018-07-11T02:06:26.029Z,52.60
2018-07-11T02:08:54.520Z,52.00
2018-07-11T02:11:23.512Z,52.50
2018-07-11T02:13:52.820Z,52.20
2018-07-11T02:16:21.679Z,52.40
2018-07-11T02:18:50.313Z,52.20
2018-07-11T02:21:19.119Z,52.80
2018-07-11T02:23:47.405Z,52.90
2018-07-11T02:26:16.280Z,53.40
2018-07-11T02:28:45.612Z,53.40
2018-07-11T02:33:44.301Z,54.10
2018-07-11T02:36:13.476Z,54.50
2018-07-11T02:38:42.655Z,54.10
2018-07-11T02:41:10.980Z,54.70
2018-07-11T02:46:09.620Z,55.20
2018-07-11T02:48:38.959Z,54.00
2018-07-11T02:51:08.528Z,54.50
2018-07-11T02:53:36.844Z,54.50
2018-07-11T02:56:05.240Z,53.90
2018-07-11T02:58:34.170Z,54.50
2018-07-11T03:01:03.033Z,53.10
2018-07-11T03:03:32.378Z,54.00
2018-07-11T03:06:00.712Z,53.80
2018-07-11T03:08:36.827Z,54.00
2018-07-11T03:11:07.324Z,53.60
2018-07-11T03:13:36.385Z,53.70
2018-07-11T03:16:05.473Z,53.70
2018-07-11T03:18:34.820Z,53.70
2018-07-11T03:21:03.225Z,53.70
2018-07-11T03:23:31.556Z,53.70
2018-07-11T03:25:59.844Z,53.60
2018-07-11T03:30:57.437Z,53.10
2018-07-11T03:33:26.276Z,53.70
2018-07-11T03:35:54.580Z,53.60
2018-07-11T03:38:23.969Z,53.60
2018-07-11T03:40:52.782Z,53.60
2018-07-11T03:43:21.448Z,53.60
2018-07-11T03:45:49.954Z,53.70
2018-07-11T03:48:18.933Z,53.60
2018-07-11T03:50:47.219Z,53.90
2018-07-11T03:53:16.791Z,54.00
2018-07-11T03:55:46.088Z,54.20
2018-07-11T03:58:14.401Z,54.50
2018-07-11T04:00:43.290Z,54.70
2018-07-11T04:03:12.566Z,54.90
2018-07-11T04:08:10.239Z,55.10
2018-07-11T04:10:38.734Z,55.40
2018-07-11T04:13:18.047Z,55.30
2018-07-11T04:15:46.321Z,55.30
2018-07-11T04:18:26.042Z,55.40
2018-07-11T04:20:54.443Z,55.50
2018-07-11T04:23:23.445Z,55.40
2018-07-11T04:25:52.399Z,55.50
2018-07-11T04:28:20.853Z,55.30
2018-07-11T04:30:50.497Z,55.80
2018-07-11T04:33:20.294Z,56.00
2018-07-11T04:35:50.596Z,55.80
2018-07-11T04:38:19.587Z,56.00
2018-07-11T04:40:51.642Z,56.00
2018-07-11T04:43:21.289Z,55.90
2018-07-11T04:45:50.231Z,55.60
2018-07-11T04:48:19.547Z,56.10
2018-07-11T04:50:49.652Z,56.00
2018-07-11T04:53:22.730Z,56.30
2018-07-11T04:56:02.722Z,56.30
2018-07-11T04:58:31.991Z,56.20
2018-07-11T05:01:01.415Z,55.30
2018-07-11T05:03:31.301Z,56.50
2018-07-11T05:05:59.568Z,55.90
2018-07-11T05:08:28.193Z,55.90
2018-07-11T05:10:56.633Z,55.40
2018-07-11T05:13:25.511Z,56.00
2018-07-11T05:15:53.921Z,56.10
2018-07-11T05:20:51.685Z,56.00
2018-07-11T05:23:20.262Z,56.50
2018-07-11T05:25:48.473Z,56.50
2018-07-11T05:28:17.309Z,56.80
2018-07-11T05:30:45.613Z,57.00
2018-07-11T05:33:15.115Z,57.00
2018-07-11T05:35:44.956Z,57.20
2018-07-11T05:38:14.277Z,57.50
2018-07-11T05:40:42.574Z,57.60
2018-07-11T05:43:12.305Z,57.80
2018-07-11T05:45:41.089Z,58.20
2018-07-11T05:48:09.526Z,58.10
2018-07-11T05:50:38.236Z,58.00
2018-07-11T05:53:06.775Z,57.40
2018-07-11T05:55:36.216Z,55.00
2018-07-11T05:58:05.345Z,55.60
2018-07-11T06:00:34.388Z,55.90
2018-07-11T06:03:03.651Z,56.20
2018-07-11T06:05:33.688Z,56.20
2018-07-11T06:08:02.084Z,56.60
2018-07-11T06:10:30.477Z,55.20
2018-07-11T06:12:59.851Z,55.80
2018-07-11T06:15:28.299Z,55.40
2018-07-11T06:17:56.682Z,54.80
2018-07-11T06:20:25.795Z,54.00
2018-07-11T06:22:54.100Z,53.40
2018-07-11T06:25:25.824Z,52.40
2018-07-11T06:30:23.114Z,52.80
2018-07-11T06:32:52.012Z,53.80
2018-07-11T06:35:21.608Z,54.00
2018-07-11T06:37:50.428Z,54.30
2018-07-11T06:40:19.762Z,54.10
2018-07-11T06:42:48.457Z,54.20
2018-07-11T06:45:17.521Z,53.20
2018-07-11T06:47:45.892Z,53.50
2018-07-11T06:50:14.860Z,53.90
2018-07-11T06:52:45.741Z,54.00
2018-07-11T06:55:15.301Z,53.70
2018-07-11T06:57:44.905Z,53.80
2018-07-11T07:00:13.833Z,54.20
2018-07-11T07:02:42.152Z,54.30
2018-07-11T07:07:39.564Z,53.10
2018-07-11T07:10:08.127Z,52.50
2018-07-11T07:12:36.960Z,51.80
2018-07-11T07:15:05.602Z,50.10
2018-07-11T07:17:34.086Z,50.00
2018-07-11T07:20:03.665Z,50.90
2018-07-11T07:22:32.822Z,50.90
2018-07-11T07:25:01.183Z,51.30
2018-07-11T07:27:29.653Z,51.30
2018-07-11T07:30:00.073Z,50.10
2018-07-11T07:32:28.487Z,49.70
2018-07-11T07:34:57.347Z,49.30
2018-07-11T07:39:54.535Z,49.40
2018-07-11T07:42:22.965Z,49.30
2018-07-11T07:44:51.585Z,49.10
2018-07-11T07:47:25.968Z,48.70
2018-07-11T07:49:54.461Z,49.00
2018-07-11T07:52:23.444Z,49.40
2018-07-11T07:54:52.657Z,49.20
2018-07-11T07:57:20.949Z,49.00
2018-07-11T07:59:49.526Z,48.70
2018-07-11T08:02:19.169Z,48.80
2018-07-11T08:04:48.351Z,48.50
2018-07-11T08:07:17.553Z,47.90
2018-07-11T08:09:45.940Z,46.00
2018-07-11T08:12:14.514Z,46.80
2018-07-11T08:14:43.104Z,47.30
2018-07-11T08:17:12.049Z,47.30
2018-07-11T08:19:40.926Z,46.50
2018-07-11T08:22:26.306Z,46.70
2018-07-11T08:26:14.705Z,46.10
2018-07-11T08:31:40.177Z,45.30
2018-07-11T08:37:05.079Z,44.60
2018-07-11T08:42:56.017Z,43.70
2018-07-11T08:46:47.641Z,44.40
2018-07-11T08:50:07.621Z,45.30
2018-07-11T08:52:56.566Z,45.30
2018-07-11T08:55:51.296Z,45.10
2018-07-11T08:58:41.565Z,44.90
2018-07-11T09:02:33.389Z,45.00
2018-07-11T09:07:20.822Z,44.30
2018-07-11T09:10:48.068Z,43.80
2018-07-11T09:13:52.874Z,43.80
2018-07-11T09:16:37.574Z,43.50
2018-07-11T09:19:23.106Z,43.20
2018-07-11T09:22:08.439Z,42.90
2018-07-11T09:24:40.273Z,43.20
2018-07-11T09:27:09.717Z,43.80
2018-07-11T09:29:39.107Z,42.50
2018-07-11T09:32:07.645Z,42.40
2018-07-11T09:34:36.029Z,42.80
2018-07-11T09:37:04.956Z,42.40
2018-07-11T09:39:34.803Z,41.80
2018-07-11T09:42:03.231Z,40.90
2018-07-11T09:44:31.843Z,40.50
2018-07-11T09:47:00.736Z,40.80
2018-07-11T09:49:29.052Z,39.70
2018-07-11T09:51:57.423Z,39.50
2018-07-11T09:54:26.285Z,39.10
2018-07-11T09:56:54.660Z,38.50
2018-07-11T09:59:22.939Z,37.90
2018-07-11T10:01:51.358Z,38.60
2018-07-11T10:04:20.038Z,38.10
2018-07-11T10:06:48.571Z,37.60
2018-07-11T10:09:18.141Z,37.70
2018-07-11T10:11:47.391Z,38.40
2018-07-11T10:14:15.800Z,39.00
2018-07-11T10:16:44.215Z,38.60
2018-07-11T10:21:41.839Z,38.70
2018-07-11T10:24:10.227Z,37.80
2018-07-11T10:26:39.317Z,38.20
2018-07-11T10:29:07.678Z,37.90
2018-07-11T10:31:36.469Z,36.40
2018-07-11T10:34:04.929Z,37.20
2018-07-11T10:36:34.338Z,37.60
2018-07-11T10:39:04.950Z,37.30
2018-07-11T10:41:33.700Z,38.50
2018-07-11T10:44:04.189Z,39.00
2018-07-11T10:46:33.137Z,38.60
2018-07-11T10:49:03.884Z,38.90
2018-07-11T10:51:32.852Z,39.20
2018-07-11T10:54:02.030Z,40.60
2018-07-11T10:56:31.803Z,39.50
2018-07-11T10:59:01.653Z,40.20
2018-07-11T11:01:31.395Z,39.90
2018-07-11T11:04:00.795Z,39.80
2018-07-11T11:06:30.726Z,40.40
2018-07-11T11:09:00.518Z,41.80
2018-07-11T11:11:28.822Z,42.30
2018-07-11T11:13:59.263Z,42.80
2018-07-11T11:16:27.677Z,43.00
2018-07-11T11:18:57.152Z,42.60
2018-07-11T11:21:27.000Z,42.00
2018-07-11T11:23:56.107Z,41.70
2018-07-11T11:26:24.715Z,42.00
2018-07-11T11:28:53.974Z,41.50
2018-07-11T11:31:23.638Z,41.00
2018-07-11T11:33:52.682Z,41.50
2018-07-11T11:36:21.273Z,41.90
2018-07-11T11:38:51.047Z,41.70
2018-07-11T11:41:21.176Z,40.80
2018-07-11T11:43:50.434Z,40.50
2018-07-11T11:46:19.745Z,38.90
2018-07-11T11:48:48.612Z,39.30
2018-07-11T11:51:18.725Z,38.00
2018-07-11T11:53:50.461Z,37.60
2018-07-11T11:56:20.431Z,36.80
2018-07-11T11:58:50.934Z,34.70
2018-07-11T12:01:21.541Z,35.40
2018-07-11T12:03:51.140Z,35.00
2018-07-11T12:06:20.445Z,34.90
2018-07-11T12:08:50.296Z,34.50
2018-07-11T12:11:21.768Z,35.00
2018-07-11T12:13:52.554Z,35.20
2018-07-11T12:16:21.539Z,34.90
2018-07-11T12:18:51.848Z,35.80
2018-07-11T12:21:20.944Z,35.10
2018-07-11T12:23:51.714Z,35.00
2018-07-11T12:26:22.081Z,36.40
2018-07-11T12:28:51.394Z,37.60
2018-07-11T12:31:20.639Z,36.30
2018-07-11T12:33:50.749Z,37.40
2018-07-11T12:36:23.328Z,36.20
2018-07-11T12:38:55.353Z,34.60
2018-07-11T12:41:26.459Z,35.70
2018-07-11T12:43:56.090Z,33.90
2018-07-11T12:46:26.197Z,34.00
2018-07-11T12:49:02.146Z,34.00
2018-07-11T12:51:32.974Z,34.30
2018-07-11T12:54:06.021Z,33.50
2018-07-11T12:56:35.414Z,34.00
2018-07-11T12:59:05.124Z,35.00
2018-07-11T13:01:34.774Z,35.90
2018-07-11T13:04:04.187Z,36.00
2018-07-11T13:06:33.162Z,35.90
2018-07-11T13:09:03.489Z,35.80
2018-07-11T13:11:33.017Z,37.00
2018-07-11T13:14:02.090Z,37.70
2018-07-11T13:16:31.146Z,38.40
2018-07-11T13:19:00.089Z,38.00
2018-07-11T13:21:29.630Z,38.00
2018-07-11T13:23:59.387Z,37.60
2018-07-11T13:26:29.059Z,37.40
2018-07-11T13:28:58.107Z,37.10
2018-07-11T13:31:27.843Z,38.30
2018-07-11T13:33:57.439Z,38.90
2018-07-11T13:36:27.422Z,39.70
2018-07-11T13:38:57.108Z,40.20
2018-07-11T13:41:26.746Z,39.00
2018-07-11T13:43:55.676Z,38.60
2018-07-11T13:46:24.830Z,38.20
2018-07-11T13:48:57.604Z,38.10
2018-07-11T13:51:26.627Z,37.90
2018-07-11T13:53:56.237Z,38.60
2018-07-11T13:56:25.751Z,37.80
2018-07-11T13:58:57.554Z,37.70
2018-07-11T14:01:26.575Z,37.50
2018-07-11T14:03:55.663Z,36.60
2018-07-11T14:06:25.479Z,36.10
2018-07-11T14:08:55.358Z,35.50
2018-07-11T14:11:24.824Z,36.20
2018-07-11T14:13:53.900Z,36.40
2018-07-11T14:16:24.415Z,36.10
2018-07-11T14:18:52.988Z,35.80
2018-07-11T14:21:22.721Z,35.90
2018-07-11T14:23:51.263Z,35.00
2018-07-11T14:26:20.833Z,33.10
2018-07-11T14:28:52.554Z,31.60
2018-07-11T14:31:35.050Z,30.80
2018-07-11T14:34:08.685Z,31.10
2018-07-11T14:36:37.295Z,32.50
2018-07-11T14:39:08.485Z,31.90
2018-07-11T14:41:37.065Z,30.60
2018-07-11T14:44:06.897Z,29.00
2018-07-11T14:46:35.429Z,28.10
2018-07-11T14:49:05.569Z,27.10
2018-07-11T14:51:35.399Z,26.50
2018-07-11T14:54:04.093Z,25.70
2018-07-11T14:56:32.737Z,25.70
2018-07-11T14:59:02.004Z,25.70
2018-07-11T15:01:30.334Z,24.50
2018-07-11T15:03:59.957Z,24.60
2018-07-11T15:06:29.512Z,24.00
2018-07-11T15:08:58.458Z,22.60
2018-07-11T15:11:26.612Z,22.50
2018-07-11T15:13:56.716Z,24.10
2018-07-11T15:16:26.145Z,24.30
2018-07-11T15:18:55.025Z,23.40
2018-07-11T15:21:25.432Z,23.00
2018-07-11T15:23:55.632Z,23.20
2018-07-11T15:26:26.517Z,23.70
2018-07-11T15:28:55.807Z,23.40
2018-07-11T15:31:24.743Z,24.80
2018-07-11T15:33:54.227Z,25.20
2018-07-11T15:36:24.813Z,25.00
2018-07-11T15:38:54.842Z,25.10
2018-07-11T15:41:24.429Z,23.70
2018-07-11T15:43:54.314Z,22.70
2018-07-11T15:46:24.053Z,21.80
2018-07-11T15:48:54.136Z,20.90
2018-07-11T15:51:24.316Z,20.60
2018-07-11T15:53:54.147Z,20.30
2018-07-11T15:56:24.869Z,20.40
2018-07-11T15:59:06.627Z,21.30
2018-07-11T16:01:46.352Z,23.50
2018-07-11T16:04:23.511Z,24.60
2018-07-11T16:06:52.869Z,25.10
2018-07-11T16:09:22.027Z,26.10
2018-07-11T16:14:21.101Z,25.90
2018-07-11T16:16:50.157Z,26.30
2018-07-11T16:19:19.312Z,25.80
2018-07-11T16:21:48.688Z,26.10
2018-07-11T16:24:19.829Z,26.60
2018-07-11T16:26:49.018Z,25.70
2018-07-11T16:29:18.973Z,25.20
2018-07-11T16:31:48.758Z,25.50
2018-07-11T16:34:18.987Z,23.80
2018-07-11T16:36:48.751Z,22.80
2018-07-11T16:39:18.259Z,23.10
2018-07-11T16:41:47.443Z,23.20
2018-07-11T16:44:17.544Z,22.80
2018-07-11T16:46:47.429Z,22.40
2018-07-11T16:49:16.782Z,22.80
2018-07-11T16:51:46.059Z,22.60
2018-07-11T16:54:16.216Z,22.90
2018-07-11T16:56:45.372Z,21.90
2018-07-11T16:59:15.993Z,22.10
2018-07-11T17:01:55.706Z,24.70
2018-07-11T17:04:27.187Z,25.70
2018-07-11T17:06:58.942Z,26.60
2018-07-11T17:11:57.097Z,27.50
2018-07-11T17:14:26.709Z,27.50
2018-07-11T17:17:02.356Z,28.00
2018-07-11T17:19:55.584Z,28.60
2018-07-11T17:22:29.859Z,29.50
2018-07-11T17:25:03.405Z,30.40
2018-07-11T17:27:31.785Z,31.90
2018-07-11T17:30:02.641Z,31.90
2018-07-11T17:32:31.831Z,32.00
2018-07-11T17:35:01.113Z,32.10
2018-07-11T17:37:33.477Z,31.40
2018-07-11T17:42:40.401Z,32.50
2018-07-11T17:45:17.911Z,32.60
2018-07-11T17:50:05.433Z,32.80
2018-07-11T17:53:18.221Z,32.30
2018-07-11T17:56:13.042Z,33.30
2018-07-11T17:58:58.991Z,33.90
2018-07-11T18:01:39.973Z,33.40
2018-07-11T18:06:25.747Z,33.40
2018-07-11T18:09:07.140Z,33.10
2018-07-11T18:11:54.575Z,33.30
2018-07-11T18:14:42.617Z,33.30
2018-07-11T18:17:56.107Z,33.40
2018-07-11T18:20:38.235Z,33.80
2018-07-11T18:24:01.686Z,34.00
2018-07-11T18:26:43.906Z,34.40
2018-07-11T18:31:33.990Z,34.50
2018-07-11T18:34:17.925Z,34.70
2018-07-11T18:37:01.633Z,35.60
2018-07-11T18:39:47.276Z,36.20
2018-07-11T18:42:35.677Z,35.90
2018-07-11T18:47:27.952Z,35.90
2018-07-11T18:50:21.188Z,35.70
2018-07-11T18:53:08.961Z,36.20
2018-07-11T18:56:06.777Z,36.70
2018-07-11T18:58:52.798Z,36.80
2018-07-11T19:01:37.869Z,37.10
2018-07-11T19:07:25.865Z,37.30
2018-07-11T19:09:58.430Z,37.40
2018-07-11T19:12:33.913Z,37.80
2018-07-11T19:15:14.329Z,37.30
2018-07-11T19:18:07.720Z,37.80
2018-07-11T19:20:45.613Z,38.20
2018-07-11T19:23:33.617Z,38.20
2018-07-11T19:26:35.098Z,38.50
2018-07-11T19:34:36.693Z,38.90
2018-07-11T19:38:34.905Z,39.20
2018-07-11T19:41:20.757Z,39.10
2018-07-11T19:44:37.893Z,39.10
2018-07-11T19:47:16.181Z,39.60
2018-07-11T19:51:01.390Z,38.90
2018-07-11T19:55:22.112Z,39.20
2018-07-11T19:57:53.383Z,39.60
2018-07-11T20:00:24.174Z,40.50
2018-07-11T20:02:54.291Z,39.60
2018-07-11T20:05:23.776Z,39.50
2018-07-11T20:07:53.235Z,39.80
2018-07-11T20:10:22.892Z,39.90
2018-07-11T20:12:52.995Z,39.70
2018-07-11T20:15:23.075Z,39.80
2018-07-11T20:17:52.554Z,40.10
2018-07-11T20:20:23.216Z,40.40
2018-07-11T20:22:52.638Z,40.40
2018-07-11T20:25:23.504Z,40.30
2018-07-11T20:27:53.698Z,40.10
2018-07-11T20:30:26.563Z,40.40
2018-07-11T20:32:55.676Z,40.10
2018-07-11T20:35:25.663Z,39.40
2018-07-11T20:37:56.222Z,40.20
2018-07-11T20:40:47.409Z,40.90
2018-07-11T20:43:17.072Z,40.90
2018-07-11T20:45:46.495Z,40.70
2018-07-11T20:48:16.132Z,40.80
2018-07-11T20:50:45.659Z,40.50
2018-07-11T20:53:18.069Z,40.80
2018-07-11T20:55:49.472Z,40.80
2018-07-11T20:58:35.505Z,40.80
2018-07-11T21:01:21.473Z,40.80
2018-07-11T21:06:07.546Z,40.90
2018-07-11T21:11:53.571Z,40.90
2018-07-11T21:14:45.241Z,40.90
2018-07-11T21:17:27.505Z,40.80
2018-07-11T21:19:57.093Z,40.80
2018-07-11T21:22:26.265Z,40.80
2018-07-11T21:24:56.133Z,41.20
2018-07-11T21:27:24.570Z,41.50
2018-07-11T21:29:53.540Z,41.70
2018-07-11T21:32:21.901Z,41.90
2018-07-11T21:34:51.081Z,41.90
2018-07-11T21:37:20.639Z,42.00
2018-07-11T21:42:22.101Z,42.80
2018-07-11T21:44:53.415Z,42.20
2018-07-11T21:47:24.899Z,42.30
2018-07-11T21:49:56.224Z,42.50
2018-07-11T21:52:26.721Z,42.50
2018-07-11T21:54:57.977Z,42.50
2018-07-11T21:57:28.809Z,42.60
2018-07-11T21:59:57.309Z,42.60
2018-07-11T22:02:25.926Z,42.50
2018-07-11T22:04:56.577Z,42.30
2018-07-11T22:07:26.439Z,42.10
2018-07-11T22:09:55.738Z,42.50
2018-07-11T22:12:26.882Z,42.50
2018-07-11T22:14:55.545Z,42.30
2018-07-11T22:17:40.856Z,42.30
2018-07-11T22:20:08.270Z,42.50
2018-07-11T22:22:34.857Z,42.60
2018-07-11T22:25:01.685Z,42.80
2018-07-11T22:27:28.361Z,43.40
2018-07-11T22:29:55.190Z,42.80
2018-07-11T22:32:21.936Z,43.00
2018-07-11T22:37:15.786Z,43.50
2018-07-11T22:39:42.427Z,43.20
2018-07-11T22:42:09.183Z,43.40
2018-07-11T22:44:35.902Z,43.30
2018-07-11T22:47:03.339Z,43.40
2018-07-11T22:54:25.342Z,43.50
2018-07-11T22:56:52.299Z,43.50
2018-07-11T23:01:46.254Z,43.10
2018-07-11T23:04:13.026Z,43.90
2018-07-11T23:06:39.783Z,43.60
2018-07-11T23:09:06.439Z,43.60
2018-07-11T23:11:33.041Z,44.20
2018-07-11T23:14:00.410Z,43.60
2018-07-11T23:16:27.677Z,43.50
2018-07-11T23:18:54.342Z,43.70
2018-07-11T23:21:21.096Z,43.80
2018-07-11T23:23:48.306Z,43.80
2018-07-11T23:28:42.028Z,44.00
2018-07-11T23:31:08.772Z,43.90
2018-07-11T23:33:35.574Z,44.10
2018-07-11T23:36:02.334Z,44.00
2018-07-11T23:38:29.717Z,43.90
2018-07-11T23:40:56.328Z,44.10
2018-07-11T23:43:23.008Z,44.30
2018-07-11T23:45:49.598Z,44.30
2018-07-11T23:48:16.245Z,44.30
2018-07-11T23:50:43.188Z,44.30
2018-07-11T23:53:10.256Z,44.50
2018-07-11T23:55:36.930Z,44.40
